sensor_id;sensor_type;location;lat;lon;timestamp;P1;durP1;ratioP1;P2;durP2;ratioP2
68310;SDS011;55157;51.036;17.058;2023-06-05T00:01:26;6.90;;;2.30;;
68310;SDS011;55157;51.036;17.058;2023-06-05T00:03:51;5.25;;;2.30;;
68310;SDS011;55157;51.036;17.058;2023-06-05T00:06:18;5.28;;;2.45;;
68310;SDS011;55157;51.036;17.058;2023-06-05T00:08:43;7.80;;;2.47;;
68310;SDS011;55157;51.036;17.058;2023-06-05T00:11:09;3.72;;;2.25;;
68310;SDS011;55157;51.036;17.058;2023-06-05T00:13:34;6.70;;;2.10;;
68310;SDS011;55157;51.036;17.058;2023-06-05T00:15:59;7.22;;;2.42;;
68310;SDS011;55157;51.036;17.058;2023-06-05T00:18:24;9.90;;;2.20;;
68310;SDS011;55157;51.036;17.058;2023-06-05T00:20:50;4.15;;;1.75;;
68310;SDS011;55157;51.036;17.058;2023-06-05T00:23:16;3.97;;;1.98;;
68310;SDS011;55157;51.036;17.058;2023-06-05T00:25:42;4.90;;;2.30;;
68310;SDS011;55157;51.036;17.058;2023-06-05T00:28:07;4.18;;;1.92;;
68310;SDS011;55157;51.036;17.058;2023-06-05T00:30:32;6.13;;;2.13;;
68310;SDS011;55157;51.036;17.058;2023-06-05T00:32:57;4.68;;;2.38;;
68310;SDS011;55157;51.036;17.058;2023-06-05T00:35:23;4.75;;;2.20;;
68310;SDS011;55157;51.036;17.058;2023-06-05T00:37:48;3.95;;;2.03;;
68310;SDS011;55157;51.036;17.058;2023-06-05T00:40:14;6.30;;;2.28;;
68310;SDS011;55157;51.036;17.058;2023-06-05T00:42:40;4.90;;;2.40;;
68310;SDS011;55157;51.036;17.058;2023-06-05T00:45:05;7.07;;;3.17;;
68310;SDS011;55157;51.036;17.058;2023-06-05T00:47:31;7.38;;;2.67;;
68310;SDS011;55157;51.036;17.058;2023-06-05T00:49:57;5.10;;;2.20;;
68310;SDS011;55157;51.036;17.058;2023-06-05T00:52:22;4.63;;;2.53;;
68310;SDS011;55157;51.036;17.058;2023-06-05T00:54:48;6.72;;;2.38;;
68310;SDS011;55157;51.036;17.058;2023-06-05T00:57:15;8.35;;;2.60;;
68310;SDS011;55157;51.036;17.058;2023-06-05T00:59:40;6.65;;;2.58;;
68310;SDS011;55157;51.036;17.058;2023-06-05T01:02:05;4.05;;;2.00;;
68310;SDS011;55157;51.036;17.058;2023-06-05T01:04:31;7.30;;;3.10;;
68310;SDS011;55157;51.036;17.058;2023-06-05T01:06:56;12.95;;;2.35;;
68310;SDS011;55157;51.036;17.058;2023-06-05T01:09:21;4.78;;;2.50;;
68310;SDS011;55157;51.036;17.058;2023-06-05T01:11:49;6.18;;;2.40;;
68310;SDS011;55157;51.036;17.058;2023-06-05T01:14:18;4.45;;;2.50;;
68310;SDS011;55157;51.036;17.058;2023-06-05T01:16:44;6.32;;;2.50;;
68310;SDS011;55157;51.036;17.058;2023-06-05T01:19:12;7.45;;;2.17;;
68310;SDS011;55157;51.036;17.058;2023-06-05T01:21:38;3.83;;;2.30;;
68310;SDS011;55157;51.036;17.058;2023-06-05T01:24:05;3.95;;;2.30;;
68310;SDS011;55157;51.036;17.058;2023-06-05T01:26:33;3.65;;;1.92;;
68310;SDS011;55157;51.036;17.058;2023-06-05T01:29:00;4.53;;;2.20;;
68310;SDS011;55157;51.036;17.058;2023-06-05T01:31:26;5.15;;;2.65;;
68310;SDS011;55157;51.036;17.058;2023-06-05T01:33:54;5.43;;;2.33;;
68310;SDS011;55157;51.036;17.058;2023-06-05T01:36:21;8.80;;;3.83;;
68310;SDS011;55157;51.036;17.058;2023-06-05T01:38:46;5.13;;;2.13;;
68310;SDS011;55157;51.036;17.058;2023-06-05T01:41:14;7.82;;;2.60;;
68310;SDS011;55157;51.036;17.058;2023-06-05T01:43:40;5.15;;;3.10;;
68310;SDS011;55157;51.036;17.058;2023-06-05T01:46:06;4.43;;;2.25;;
68310;SDS011;55157;51.036;17.058;2023-06-05T01:48:31;5.72;;;2.90;;
68310;SDS011;55157;51.036;17.058;2023-06-05T01:50:57;4.07;;;2.65;;
68310;SDS011;55157;51.036;17.058;2023-06-05T01:53:22;9.40;;;2.30;;
68310;SDS011;55157;51.036;17.058;2023-06-05T01:55:48;6.05;;;2.58;;
68310;SDS011;55157;51.036;17.058;2023-06-05T01:58:14;5.03;;;2.78;;
68310;SDS011;55157;51.036;17.058;2023-06-05T02:00:40;6.95;;;2.33;;
68310;SDS011;55157;51.036;17.058;2023-06-05T02:03:05;6.70;;;2.35;;
68310;SDS011;55157;51.036;17.058;2023-06-05T02:05:30;5.60;;;2.50;;
68310;SDS011;55157;51.036;17.058;2023-06-05T02:07:55;4.65;;;2.35;;
68310;SDS011;55157;51.036;17.058;2023-06-05T02:10:21;7.18;;;2.60;;
68310;SDS011;55157;51.036;17.058;2023-06-05T02:12:46;6.47;;;2.70;;
68310;SDS011;55157;51.036;17.058;2023-06-05T02:15:13;5.30;;;2.70;;
68310;SDS011;55157;51.036;17.058;2023-06-05T02:17:39;5.65;;;2.42;;
68310;SDS011;55157;51.036;17.058;2023-06-05T02:20:04;7.30;;;2.15;;
68310;SDS011;55157;51.036;17.058;2023-06-05T02:22:30;5.55;;;2.28;;
68310;SDS011;55157;51.036;17.058;2023-06-05T02:24:55;6.93;;;3.03;;
68310;SDS011;55157;51.036;17.058;2023-06-05T02:27:20;9.00;;;2.70;;
68310;SDS011;55157;51.036;17.058;2023-06-05T02:29:45;3.70;;;2.58;;
68310;SDS011;55157;51.036;17.058;2023-06-05T02:32:12;4.05;;;2.53;;
68310;SDS011;55157;51.036;17.058;2023-06-05T02:34:38;4.35;;;2.30;;
68310;SDS011;55157;51.036;17.058;2023-06-05T02:37:03;7.10;;;2.60;;
68310;SDS011;55157;51.036;17.058;2023-06-05T02:39:28;6.13;;;2.30;;
68310;SDS011;55157;51.036;17.058;2023-06-05T02:41:53;7.55;;;3.00;;
68310;SDS011;55157;51.036;17.058;2023-06-05T02:44:19;3.95;;;2.42;;
68310;SDS011;55157;51.036;17.058;2023-06-05T02:46:44;5.20;;;2.63;;
68310;SDS011;55157;51.036;17.058;2023-06-05T02:49:11;7.43;;;2.58;;
68310;SDS011;55157;51.036;17.058;2023-06-05T02:51:36;7.70;;;3.28;;
68310;SDS011;55157;51.036;17.058;2023-06-05T02:54:02;7.70;;;2.80;;
68310;SDS011;55157;51.036;17.058;2023-06-05T02:56:27;5.57;;;2.92;;
68310;SDS011;55157;51.036;17.058;2023-06-05T02:58:52;9.45;;;2.70;;
68310;SDS011;55157;51.036;17.058;2023-06-05T03:01:18;7.78;;;3.05;;
68310;SDS011;55157;51.036;17.058;2023-06-05T03:03:43;5.53;;;2.80;;
68310;SDS011;55157;51.036;17.058;2023-06-05T03:06:09;12.00;;;3.13;;
68310;SDS011;55157;51.036;17.058;2023-06-05T03:08:35;8.57;;;3.13;;
68310;SDS011;55157;51.036;17.058;2023-06-05T03:11:01;8.55;;;2.90;;
68310;SDS011;55157;51.036;17.058;2023-06-05T03:13:26;9.57;;;2.92;;
68310;SDS011;55157;51.036;17.058;2023-06-05T03:15:51;12.20;;;4.78;;
68310;SDS011;55157;51.036;17.058;2023-06-05T03:18:17;6.28;;;2.65;;
68310;SDS011;55157;51.036;17.058;2023-06-05T03:20:42;15.45;;;3.08;;
68310;SDS011;55157;51.036;17.058;2023-06-05T03:23:09;4.15;;;3.00;;
68310;SDS011;55157;51.036;17.058;2023-06-05T03:25:34;7.07;;;2.53;;
68310;SDS011;55157;51.036;17.058;2023-06-05T03:27:59;6.57;;;2.90;;
68310;SDS011;55157;51.036;17.058;2023-06-05T03:30:24;6.30;;;2.50;;
68310;SDS011;55157;51.036;17.058;2023-06-05T03:32:49;9.02;;;2.50;;
68310;SDS011;55157;51.036;17.058;2023-06-05T03:35:15;5.15;;;2.10;;
68310;SDS011;55157;51.036;17.058;2023-06-05T03:37:40;7.85;;;2.72;;
68310;SDS011;55157;51.036;17.058;2023-06-05T03:40:07;5.68;;;2.30;;
68310;SDS011;55157;51.036;17.058;2023-06-05T03:42:33;2.97;;;2.22;;
68310;SDS011;55157;51.036;17.058;2023-06-05T03:44:58;10.93;;;2.92;;
68310;SDS011;55157;51.036;17.058;2023-06-05T03:47:23;4.63;;;2.72;;
68310;SDS011;55157;51.036;17.058;2023-06-05T03:49:49;12.63;;;2.38;;
68310;SDS011;55157;51.036;17.058;2023-06-05T03:52:14;7.57;;;2.83;;
68310;SDS011;55157;51.036;17.058;2023-06-05T03:54:39;8.50;;;2.60;;
68310;SDS011;55157;51.036;17.058;2023-06-05T03:57:06;5.72;;;2.80;;
68310;SDS011;55157;51.036;17.058;2023-06-05T03:59:31;3.78;;;2.38;;
68310;SDS011;55157;51.036;17.058;2023-06-05T04:01:56;8.13;;;2.90;;
68310;SDS011;55157;51.036;17.058;2023-06-05T04:04:22;5.28;;;2.28;;
68310;SDS011;55157;51.036;17.058;2023-06-05T04:06:47;9.18;;;2.83;;
68310;SDS011;55157;51.036;17.058;2023-06-05T04:09:12;4.43;;;2.25;;
68310;SDS011;55157;51.036;17.058;2023-06-05T04:11:39;3.65;;;2.10;;
68310;SDS011;55157;51.036;17.058;2023-06-05T04:14:06;4.65;;;2.45;;
68310;SDS011;55157;51.036;17.058;2023-06-05T04:16:31;8.93;;;2.65;;
68310;SDS011;55157;51.036;17.058;2023-06-05T04:18:56;7.88;;;3.03;;
68310;SDS011;55157;51.036;17.058;2023-06-05T04:21:21;7.70;;;2.53;;
68310;SDS011;55157;51.036;17.058;2023-06-05T04:23:47;6.85;;;2.13;;
68310;SDS011;55157;51.036;17.058;2023-06-05T04:26:12;4.57;;;2.28;;
68310;SDS011;55157;51.036;17.058;2023-06-05T04:28:37;7.97;;;2.90;;
68310;SDS011;55157;51.036;17.058;2023-06-05T04:31:04;6.15;;;3.15;;
68310;SDS011;55157;51.036;17.058;2023-06-05T04:33:29;5.38;;;2.70;;
68310;SDS011;55157;51.036;17.058;2023-06-05T04:35:54;7.30;;;3.33;;
68310;SDS011;55157;51.036;17.058;2023-06-05T04:38:19;12.75;;;3.85;;
68310;SDS011;55157;51.036;17.058;2023-06-05T04:40:45;14.77;;;2.42;;
68310;SDS011;55157;51.036;17.058;2023-06-05T04:43:10;6.10;;;2.40;;
68310;SDS011;55157;51.036;17.058;2023-06-05T04:45:35;8.20;;;2.70;;
68310;SDS011;55157;51.036;17.058;2023-06-05T04:48:02;6.53;;;2.85;;
68310;SDS011;55157;51.036;17.058;2023-06-05T04:50:27;8.15;;;2.35;;
68310;SDS011;55157;51.036;17.058;2023-06-05T04:52:53;4.32;;;2.30;;
68310;SDS011;55157;51.036;17.058;2023-06-05T04:55:18;6.45;;;2.30;;
68310;SDS011;55157;51.036;17.058;2023-06-05T04:57:43;6.70;;;2.20;;
68310;SDS011;55157;51.036;17.058;2023-06-05T05:00:09;13.43;;;2.70;;
68310;SDS011;55157;51.036;17.058;2023-06-05T05:02:34;7.07;;;2.70;;
68310;SDS011;55157;51.036;17.058;2023-06-05T05:05:01;4.68;;;2.17;;
68310;SDS011;55157;51.036;17.058;2023-06-05T05:07:26;5.80;;;2.33;;
68310;SDS011;55157;51.036;17.058;2023-06-05T05:09:51;9.95;;;3.00;;
68310;SDS011;55157;51.036;17.058;2023-06-05T05:12:17;14.95;;;2.78;;
68310;SDS011;55157;51.036;17.058;2023-06-05T05:14:42;9.68;;;3.03;;
68310;SDS011;55157;51.036;17.058;2023-06-05T05:17:07;6.32;;;2.90;;
68310;SDS011;55157;51.036;17.058;2023-06-05T05:19:32;5.30;;;2.78;;
68310;SDS011;55157;51.036;17.058;2023-06-05T05:21:59;3.72;;;2.35;;
68310;SDS011;55157;51.036;17.058;2023-06-05T05:24:24;5.28;;;2.58;;
68310;SDS011;55157;51.036;17.058;2023-06-05T05:26:50;13.35;;;2.67;;
68310;SDS011;55157;51.036;17.058;2023-06-05T05:29:15;6.93;;;2.72;;
68310;SDS011;55157;51.036;17.058;2023-06-05T05:31:40;6.40;;;2.17;;
68310;SDS011;55157;51.036;17.058;2023-06-05T05:34:06;13.52;;;3.53;;
68310;SDS011;55157;51.036;17.058;2023-06-05T05:36:31;7.00;;;3.50;;
68310;SDS011;55157;51.036;17.058;2023-06-05T05:38:58;10.02;;;2.55;;
68310;SDS011;55157;51.036;17.058;2023-06-05T05:41:23;4.63;;;2.50;;
68310;SDS011;55157;51.036;17.058;2023-06-05T05:43:48;5.32;;;2.67;;
68310;SDS011;55157;51.036;17.058;2023-06-05T05:46:13;4.07;;;2.60;;
68310;SDS011;55157;51.036;17.058;2023-06-05T05:48:39;6.75;;;2.72;;
68310;SDS011;55157;51.036;17.058;2023-06-05T05:51:05;6.55;;;2.72;;
68310;SDS011;55157;51.036;17.058;2023-06-05T05:53:30;9.93;;;2.40;;
68310;SDS011;55157;51.036;17.058;2023-06-05T05:55:57;5.82;;;2.72;;
68310;SDS011;55157;51.036;17.058;2023-06-05T05:58:22;13.32;;;3.00;;
68310;SDS011;55157;51.036;17.058;2023-06-05T06:00:47;10.77;;;4.10;;
68310;SDS011;55157;51.036;17.058;2023-06-05T06:03:12;5.20;;;2.53;;
68310;SDS011;55157;51.036;17.058;2023-06-05T06:05:38;7.47;;;2.47;;
68310;SDS011;55157;51.036;17.058;2023-06-05T06:08:03;6.47;;;2.60;;
68310;SDS011;55157;51.036;17.058;2023-06-05T06:10:28;5.05;;;2.08;;
68310;SDS011;55157;51.036;17.058;2023-06-05T06:12:55;5.88;;;2.10;;
68310;SDS011;55157;51.036;17.058;2023-06-05T06:15:20;7.32;;;2.90;;
68310;SDS011;55157;51.036;17.058;2023-06-05T06:17:45;8.90;;;2.88;;
68310;SDS011;55157;51.036;17.058;2023-06-05T06:20:11;9.95;;;2.78;;
68310;SDS011;55157;51.036;17.058;2023-06-05T06:22:36;7.57;;;2.42;;
68310;SDS011;55157;51.036;17.058;2023-06-05T06:25:01;16.00;;;3.67;;
68310;SDS011;55157;51.036;17.058;2023-06-05T06:27:26;13.82;;;3.13;;
68310;SDS011;55157;51.036;17.058;2023-06-05T06:29:53;12.18;;;3.03;;
68310;SDS011;55157;51.036;17.058;2023-06-05T06:32:18;6.28;;;2.60;;
68310;SDS011;55157;51.036;17.058;2023-06-05T06:34:44;5.90;;;3.22;;
68310;SDS011;55157;51.036;17.058;2023-06-05T06:37:09;11.27;;;2.85;;
68310;SDS011;55157;51.036;17.058;2023-06-05T06:39:34;9.00;;;2.97;;
68310;SDS011;55157;51.036;17.058;2023-06-05T06:42:00;6.47;;;2.78;;
68310;SDS011;55157;51.036;17.058;2023-06-05T06:44:25;5.07;;;2.80;;
68310;SDS011;55157;51.036;17.058;2023-06-05T06:46:52;5.68;;;2.35;;
68310;SDS011;55157;51.036;17.058;2023-06-05T06:49:17;6.05;;;2.83;;
68310;SDS011;55157;51.036;17.058;2023-06-05T06:51:42;8.52;;;2.28;;
68310;SDS011;55157;51.036;17.058;2023-06-05T06:54:07;8.88;;;2.80;;
68310;SDS011;55157;51.036;17.058;2023-06-05T06:56:33;4.82;;;2.45;;
68310;SDS011;55157;51.036;17.058;2023-06-05T06:58:58;5.50;;;2.50;;
68310;SDS011;55157;51.036;17.058;2023-06-05T07:01:23;6.75;;;3.10;;
68310;SDS011;55157;51.036;17.058;2023-06-05T07:03:50;9.52;;;3.15;;
68310;SDS011;55157;51.036;17.058;2023-06-05T07:06:15;7.65;;;2.70;;
68310;SDS011;55157;51.036;17.058;2023-06-05T07:08:40;9.25;;;2.85;;
68310;SDS011;55157;51.036;17.058;2023-06-05T07:11:06;6.63;;;3.28;;
68310;SDS011;55157;51.036;17.058;2023-06-05T07:13:31;5.25;;;2.70;;
68310;SDS011;55157;51.036;17.058;2023-06-05T07:15:56;9.63;;;3.08;;
68310;SDS011;55157;51.036;17.058;2023-06-05T07:18:21;6.22;;;2.35;;
68310;SDS011;55157;51.036;17.058;2023-06-05T07:20:48;5.82;;;2.58;;
68310;SDS011;55157;51.036;17.058;2023-06-05T07:23:14;6.10;;;2.40;;
68310;SDS011;55157;51.036;17.058;2023-06-05T07:25:39;5.20;;;2.55;;
68310;SDS011;55157;51.036;17.058;2023-06-05T07:28:07;4.78;;;2.50;;
68310;SDS011;55157;51.036;17.058;2023-06-05T07:30:33;6.55;;;3.13;;
68310;SDS011;55157;51.036;17.058;2023-06-05T07:32:58;6.20;;;2.90;;
68310;SDS011;55157;51.036;17.058;2023-06-05T07:35:23;9.85;;;2.90;;
68310;SDS011;55157;51.036;17.058;2023-06-05T07:37:50;4.70;;;2.78;;
68310;SDS011;55157;51.036;17.058;2023-06-05T07:40:15;10.48;;;3.13;;
68310;SDS011;55157;51.036;17.058;2023-06-05T07:42:40;8.05;;;2.80;;
68310;SDS011;55157;51.036;17.058;2023-06-05T07:45:06;11.00;;;2.55;;
68310;SDS011;55157;51.036;17.058;2023-06-05T07:47:31;12.98;;;2.63;;
68310;SDS011;55157;51.036;17.058;2023-06-05T07:49:57;6.43;;;2.70;;
68310;SDS011;55157;51.036;17.058;2023-06-05T07:52:22;7.95;;;2.55;;
68310;SDS011;55157;51.036;17.058;2023-06-05T07:54:49;7.90;;;3.03;;
68310;SDS011;55157;51.036;17.058;2023-06-05T07:57:14;4.10;;;2.47;;
68310;SDS011;55157;51.036;17.058;2023-06-05T07:59:39;8.75;;;2.80;;
68310;SDS011;55157;51.036;17.058;2023-06-05T08:02:05;6.53;;;2.55;;
68310;SDS011;55157;51.036;17.058;2023-06-05T08:04:30;5.97;;;2.88;;
68310;SDS011;55157;51.036;17.058;2023-06-05T08:06:55;6.53;;;2.35;;
68310;SDS011;55157;51.036;17.058;2023-06-05T08:09:20;8.25;;;2.75;;
68310;SDS011;55157;51.036;17.058;2023-06-05T08:11:47;8.25;;;2.50;;
68310;SDS011;55157;51.036;17.058;2023-06-05T08:14:12;8.35;;;3.15;;
68310;SDS011;55157;51.036;17.058;2023-06-05T08:16:37;4.50;;;2.13;;
68310;SDS011;55157;51.036;17.058;2023-06-05T08:19:03;8.75;;;2.65;;
68310;SDS011;55157;51.036;17.058;2023-06-05T08:21:28;7.18;;;3.20;;
68310;SDS011;55157;51.036;17.058;2023-06-05T08:23:53;6.40;;;2.28;;
68310;SDS011;55157;51.036;17.058;2023-06-05T08:26:19;6.63;;;2.25;;
68310;SDS011;55157;51.036;17.058;2023-06-05T08:28:45;6.15;;;2.28;;
68310;SDS011;55157;51.036;17.058;2023-06-05T08:31:11;9.10;;;3.03;;
68310;SDS011;55157;51.036;17.058;2023-06-05T08:33:36;7.70;;;2.30;;
68310;SDS011;55157;51.036;17.058;2023-06-05T08:36:01;5.95;;;2.20;;
68310;SDS011;55157;51.036;17.058;2023-06-05T08:38:27;10.85;;;3.13;;
68310;SDS011;55157;51.036;17.058;2023-06-05T08:40:55;5.80;;;2.25;;
68310;SDS011;55157;51.036;17.058;2023-06-05T08:43:21;8.00;;;1.50;;
68310;SDS011;55157;51.036;17.058;2023-06-05T08:45:49;3.78;;;1.65;;
68310;SDS011;55157;51.036;17.058;2023-06-05T08:48:15;5.50;;;1.80;;
68310;SDS011;55157;51.036;17.058;2023-06-05T08:50:43;10.00;;;2.38;;
68310;SDS011;55157;51.036;17.058;2023-06-05T08:53:09;2.35;;;1.40;;
68310;SDS011;55157;51.036;17.058;2023-06-05T08:55:34;6.65;;;1.85;;
68310;SDS011;55157;51.036;17.058;2023-06-05T08:57:59;5.75;;;1.85;;
68310;SDS011;55157;51.036;17.058;2023-06-05T09:00:25;4.22;;;1.40;;
68310;SDS011;55157;51.036;17.058;2023-06-05T09:02:52;3.58;;;2.05;;
68310;SDS011;55157;51.036;17.058;2023-06-05T09:05:17;4.47;;;1.90;;
68310;SDS011;55157;51.036;17.058;2023-06-05T09:07:42;5.68;;;2.30;;
68310;SDS011;55157;51.036;17.058;2023-06-05T09:10:20;12.77;;;2.00;;
68310;SDS011;55157;51.036;17.058;2023-06-05T09:12:52;3.25;;;1.25;;
68310;SDS011;55157;51.036;17.058;2023-06-05T09:15:20;2.15;;;1.38;;
68310;SDS011;55157;51.036;17.058;2023-06-05T09:17:46;8.57;;;1.75;;
68310;SDS011;55157;51.036;17.058;2023-06-05T09:20:23;8.00;;;2.28;;
68310;SDS011;55157;51.036;17.058;2023-06-05T09:22:49;9.15;;;2.22;;
68310;SDS011;55157;51.036;17.058;2023-06-05T09:25:14;2.60;;;1.35;;
68310;SDS011;55157;51.036;17.058;2023-06-05T09:27:39;6.22;;;1.50;;
68310;SDS011;55157;51.036;17.058;2023-06-05T09:30:05;7.60;;;2.03;;
68310;SDS011;55157;51.036;17.058;2023-06-05T09:32:31;3.15;;;1.50;;
68310;SDS011;55157;51.036;17.058;2023-06-05T09:34:56;4.97;;;1.77;;
68310;SDS011;55157;51.036;17.058;2023-06-05T09:37:23;7.85;;;1.98;;
68310;SDS011;55157;51.036;17.058;2023-06-05T09:39:57;5.78;;;1.75;;
68310;SDS011;55157;51.036;17.058;2023-06-05T09:42:30;7.60;;;2.00;;
68310;SDS011;55157;51.036;17.058;2023-06-05T09:44:57;3.38;;;1.33;;
68310;SDS011;55157;51.036;17.058;2023-06-05T09:47:23;2.97;;;1.80;;
68310;SDS011;55157;51.036;17.058;2023-06-05T09:49:48;9.63;;;1.57;;
68310;SDS011;55157;51.036;17.058;2023-06-05T09:52:13;4.40;;;1.67;;
68310;SDS011;55157;51.036;17.058;2023-06-05T09:54:41;5.78;;;2.42;;
68310;SDS011;55157;51.036;17.058;2023-06-05T09:57:07;2.90;;;1.73;;
68310;SDS011;55157;51.036;17.058;2023-06-05T09:59:32;4.78;;;1.40;;
68310;SDS011;55157;51.036;17.058;2023-06-05T10:02:02;5.75;;;1.60;;
68310;SDS011;55157;51.036;17.058;2023-06-05T10:04:28;8.00;;;1.73;;
68310;SDS011;55157;51.036;17.058;2023-06-05T10:06:54;5.03;;;1.50;;
68310;SDS011;55157;51.036;17.058;2023-06-05T10:09:19;2.28;;;1.20;;
68310;SDS011;55157;51.036;17.058;2023-06-05T10:11:48;7.57;;;1.63;;
68310;SDS011;55157;51.036;17.058;2023-06-05T10:14:14;5.03;;;1.42;;
68310;SDS011;55157;51.036;17.058;2023-06-05T10:16:40;3.58;;;1.52;;
68310;SDS011;55157;51.036;17.058;2023-06-05T10:19:05;2.20;;;1.40;;
68310;SDS011;55157;51.036;17.058;2023-06-05T10:21:31;2.53;;;1.42;;
68310;SDS011;55157;51.036;17.058;2023-06-05T10:23:58;7.22;;;1.45;;
68310;SDS011;55157;51.036;17.058;2023-06-05T10:26:36;6.63;;;1.65;;
68310;SDS011;55157;51.036;17.058;2023-06-05T10:29:06;3.85;;;1.48;;
68310;SDS011;55157;51.036;17.058;2023-06-05T10:31:37;3.13;;;1.33;;
68310;SDS011;55157;51.036;17.058;2023-06-05T10:34:06;2.25;;;1.17;;
68310;SDS011;55157;51.036;17.058;2023-06-05T10:36:48;6.18;;;1.60;;
68310;SDS011;55157;51.036;17.058;2023-06-05T10:41:43;2.13;;;1.42;;
68310;SDS011;55157;51.036;17.058;2023-06-05T10:44:09;2.17;;;1.42;;
68310;SDS011;55157;51.036;17.058;2023-06-05T10:46:35;5.63;;;1.40;;
68310;SDS011;55157;51.036;17.058;2023-06-05T10:49:10;1.92;;;1.08;;
68310;SDS011;55157;51.036;17.058;2023-06-05T10:51:36;2.00;;;1.30;;
68310;SDS011;55157;51.036;17.058;2023-06-05T10:54:02;2.25;;;1.13;;
68310;SDS011;55157;51.036;17.058;2023-06-05T10:59:13;3.20;;;1.60;;
68310;SDS011;55157;51.036;17.058;2023-06-05T11:01:38;2.55;;;1.67;;
68310;SDS011;55157;51.036;17.058;2023-06-05T11:04:03;1.83;;;1.13;;
68310;SDS011;55157;51.036;17.058;2023-06-05T11:06:29;2.63;;;1.20;;
68310;SDS011;55157;51.036;17.058;2023-06-05T11:09:07;4.22;;;1.52;;
68310;SDS011;55157;51.036;17.058;2023-06-05T11:14:14;3.80;;;1.27;;
68310;SDS011;55157;51.036;17.058;2023-06-05T11:16:39;2.92;;;1.60;;
68310;SDS011;55157;51.036;17.058;2023-06-05T11:22:04;7.20;;;1.80;;
68310;SDS011;55157;51.036;17.058;2023-06-05T11:24:30;3.37;;;1.83;;
68310;SDS011;55157;51.036;17.058;2023-06-05T11:26:55;3.92;;;1.58;;
68310;SDS011;55157;51.036;17.058;2023-06-05T11:29:22;2.67;;;1.30;;
68310;SDS011;55157;51.036;17.058;2023-06-05T11:31:47;5.28;;;1.70;;
68310;SDS011;55157;51.036;17.058;2023-06-05T11:34:12;10.70;;;1.67;;
68310;SDS011;55157;51.036;17.058;2023-06-05T11:36:38;9.95;;;1.63;;
68310;SDS011;55157;51.036;17.058;2023-06-05T11:39:03;5.35;;;1.63;;
68310;SDS011;55157;51.036;17.058;2023-06-05T11:41:28;3.92;;;1.60;;
68310;SDS011;55157;51.036;17.058;2023-06-05T11:43:54;4.37;;;1.27;;
68310;SDS011;55157;51.036;17.058;2023-06-05T11:46:23;2.55;;;1.50;;
68310;SDS011;55157;51.036;17.058;2023-06-05T11:49:00;4.22;;;1.58;;
68310;SDS011;55157;51.036;17.058;2023-06-05T11:51:27;15.03;;;1.80;;
68310;SDS011;55157;51.036;17.058;2023-06-05T11:53:56;2.83;;;1.13;;
68310;SDS011;55157;51.036;17.058;2023-06-05T11:56:22;5.37;;;1.43;;
68310;SDS011;55157;51.036;17.058;2023-06-05T11:58:48;2.20;;;1.53;;
68310;SDS011;55157;51.036;17.058;2023-06-05T12:01:14;10.13;;;1.60;;
68310;SDS011;55157;51.036;17.058;2023-06-05T12:03:41;7.70;;;1.55;;
68310;SDS011;55157;51.036;17.058;2023-06-05T12:06:06;3.63;;;1.50;;
68310;SDS011;55157;51.036;17.058;2023-06-05T12:08:32;5.38;;;1.30;;
68310;SDS011;55157;51.036;17.058;2023-06-05T12:10:57;9.40;;;1.60;;
68310;SDS011;55157;51.036;17.058;2023-06-05T12:13:23;6.47;;;1.42;;
68310;SDS011;55157;51.036;17.058;2023-06-05T12:15:57;3.42;;;1.55;;
68310;SDS011;55157;51.036;17.058;2023-06-05T12:18:30;4.57;;;1.48;;
68310;SDS011;55157;51.036;17.058;2023-06-05T12:20:56;3.00;;;2.00;;
68310;SDS011;55157;51.036;17.058;2023-06-05T12:23:22;4.13;;;1.98;;
68310;SDS011;55157;51.036;17.058;2023-06-05T12:25:57;2.37;;;1.20;;
68310;SDS011;55157;51.036;17.058;2023-06-05T12:28:22;7.40;;;1.80;;
68310;SDS011;55157;51.036;17.058;2023-06-05T12:30:48;5.35;;;1.80;;
68310;SDS011;55157;51.036;17.058;2023-06-05T12:33:13;4.38;;;1.17;;
68310;SDS011;55157;51.036;17.058;2023-06-05T12:35:38;2.35;;;1.38;;
68310;SDS011;55157;51.036;17.058;2023-06-05T12:38:05;2.20;;;1.23;;
68310;SDS011;55157;51.036;17.058;2023-06-05T12:40:30;3.45;;;1.48;;
68310;SDS011;55157;51.036;17.058;2023-06-05T12:42:55;3.10;;;1.17;;
68310;SDS011;55157;51.036;17.058;2023-06-05T12:45:21;5.20;;;1.73;;
68310;SDS011;55157;51.036;17.058;2023-06-05T12:47:46;5.93;;;1.35;;
68310;SDS011;55157;51.036;17.058;2023-06-05T12:50:11;7.37;;;1.33;;
68310;SDS011;55157;51.036;17.058;2023-06-05T12:52:36;14.73;;;2.10;;
68310;SDS011;55157;51.036;17.058;2023-06-05T12:55:03;4.38;;;1.70;;
68310;SDS011;55157;51.036;17.058;2023-06-05T12:57:29;5.00;;;1.70;;
68310;SDS011;55157;51.036;17.058;2023-06-05T12:59:54;4.93;;;1.57;;
68310;SDS011;55157;51.036;17.058;2023-06-05T13:02:19;4.15;;;1.30;;
68310;SDS011;55157;51.036;17.058;2023-06-05T13:04:45;2.67;;;1.35;;
68310;SDS011;55157;51.036;17.058;2023-06-05T13:07:10;5.25;;;1.30;;
68310;SDS011;55157;51.036;17.058;2023-06-05T13:09:35;2.90;;;1.60;;
68310;SDS011;55157;51.036;17.058;2023-06-05T13:12:02;3.40;;;1.50;;
68310;SDS011;55157;51.036;17.058;2023-06-05T13:14:27;4.95;;;1.65;;
68310;SDS011;55157;51.036;17.058;2023-06-05T13:16:53;3.53;;;1.33;;
68310;SDS011;55157;51.036;17.058;2023-06-05T13:19:18;5.63;;;1.83;;
68310;SDS011;55157;51.036;17.058;2023-06-05T13:21:43;4.10;;;1.30;;
68310;SDS011;55157;51.036;17.058;2023-06-05T13:24:09;3.30;;;1.40;;
68310;SDS011;55157;51.036;17.058;2023-06-05T13:26:34;6.97;;;1.60;;
68310;SDS011;55157;51.036;17.058;2023-06-05T13:29:00;5.67;;;1.40;;
68310;SDS011;55157;51.036;17.058;2023-06-05T13:31:26;2.80;;;1.35;;
68310;SDS011;55157;51.036;17.058;2023-06-05T13:33:51;11.67;;;2.00;;
68310;SDS011;55157;51.036;17.058;2023-06-05T13:36:16;2.70;;;1.73;;
68310;SDS011;55157;51.036;17.058;2023-06-05T13:38:41;8.95;;;1.60;;
68310;SDS011;55157;51.036;17.058;2023-06-05T13:41:07;10.63;;;1.77;;
68310;SDS011;55157;51.036;17.058;2023-06-05T13:43:32;4.53;;;1.70;;
68310;SDS011;55157;51.036;17.058;2023-06-05T13:45:59;2.40;;;1.30;;
68310;SDS011;55157;51.036;17.058;2023-06-05T13:48:24;12.27;;;1.67;;
68310;SDS011;55157;51.036;17.058;2023-06-05T13:50:49;2.07;;;1.60;;
68310;SDS011;55157;51.036;17.058;2023-06-05T13:53:14;4.17;;;1.77;;
68310;SDS011;55157;51.036;17.058;2023-06-05T13:55:39;4.97;;;2.10;;
68310;SDS011;55157;51.036;17.058;2023-06-05T13:58:05;4.87;;;1.30;;
68310;SDS011;55157;51.036;17.058;2023-06-05T14:00:30;3.25;;;1.70;;
68310;SDS011;55157;51.036;17.058;2023-06-05T14:02:57;4.18;;;1.92;;
68310;SDS011;55157;51.036;17.058;2023-06-05T14:05:23;8.18;;;1.80;;
68310;SDS011;55157;51.036;17.058;2023-06-05T14:07:49;10.85;;;1.50;;
68310;SDS011;55157;51.036;17.058;2023-06-05T14:10:14;2.75;;;1.52;;
68310;SDS011;55157;51.036;17.058;2023-06-05T14:12:39;5.10;;;1.35;;
68310;SDS011;55157;51.036;17.058;2023-06-05T14:15:05;5.47;;;1.57;;
68310;SDS011;55157;51.036;17.058;2023-06-05T14:17:30;11.77;;;2.13;;
68310;SDS011;55157;51.036;17.058;2023-06-05T14:19:57;3.50;;;1.60;;
68310;SDS011;55157;51.036;17.058;2023-06-05T14:22:22;3.47;;;1.52;;
68310;SDS011;55157;51.036;17.058;2023-06-05T14:24:47;3.90;;;1.83;;
68310;SDS011;55157;51.036;17.058;2023-06-05T14:27:12;5.28;;;1.95;;
68310;SDS011;55157;51.036;17.058;2023-06-05T14:29:38;3.30;;;1.90;;
68310;SDS011;55157;51.036;17.058;2023-06-05T14:32:03;4.47;;;1.90;;
68310;SDS011;55157;51.036;17.058;2023-06-05T14:34:28;3.78;;;1.73;;
68310;SDS011;55157;51.036;17.058;2023-06-05T14:36:55;5.50;;;2.13;;